createdAt,value
2017-10-03T00:00:52.132Z,13.06
2017-10-03T00:03:19.974Z,12.96
2017-10-03T00:05:47.471Z,12.89
2017-10-03T00:08:14.943Z,12.88
2017-10-03T00:10:42.426Z,12.82
2017-10-03T00:13:09.898Z,12.79
2017-10-03T00:15:37.454Z,12.73
2017-10-03T00:18:05.015Z,12.67
2017-10-03T00:20:32.475Z,12.63
2017-10-03T00:22:59.954Z,12.60
2017-10-03T00:25:27.691Z,12.59
2017-10-03T00:27:55.149Z,12.61
2017-10-03T00:30:22.614Z,12.58
2017-10-03T00:32:50.093Z,12.55
2017-10-03T00:35:17.555Z,12.55
2017-10-03T00:37:45.027Z,12.52
2017-10-03T00:40:12.501Z,12.46
2017-10-03T00:42:39.967Z,12.45
2017-10-03T00:45:07.434Z,12.44
2017-10-03T00:47:35.173Z,12.40
2017-10-03T00:50:02.625Z,12.37
2017-10-03T00:52:30.127Z,12.37
2017-10-03T00:54:57.634Z,12.37
2017-10-03T00:57:25.092Z,12.38
2017-10-03T00:59:52.558Z,12.28
2017-10-03T01:02:20.077Z,12.29
2017-10-03T01:04:47.548Z,12.25
2017-10-03T01:07:15.005Z,12.25
2017-10-03T01:09:42.860Z,12.27
2017-10-03T01:12:10.311Z,12.23
2017-10-03T01:14:37.759Z,12.23
2017-10-03T01:17:05.316Z,12.23
2017-10-03T01:19:32.767Z,12.17
2017-10-03T01:22:00.246Z,12.15
2017-10-03T01:24:27.702Z,12.15
2017-10-03T01:26:55.170Z,12.15
2017-10-03T01:29:22.631Z,12.10
2017-10-03T01:31:50.363Z,12.11
2017-10-03T01:34:17.933Z,12.09
2017-10-03T01:36:45.394Z,12.05
2017-10-03T01:39:12.938Z,12.08
2017-10-03T01:41:40.444Z,12.09
2017-10-03T01:44:07.943Z,12.09
2017-10-03T01:46:35.396Z,12.05
2017-10-03T01:49:03.179Z,12.03
2017-10-03T01:51:30.634Z,12.01
2017-10-03T01:53:58.102Z,11.98
2017-10-03T01:56:25.596Z,11.97
2017-10-03T01:58:53.061Z,11.95
2017-10-03T02:01:20.530Z,11.96
2017-10-03T02:03:47.986Z,11.97
2017-10-03T02:06:15.795Z,11.99
2017-10-03T02:08:43.247Z,11.99
2017-10-03T02:11:10.709Z,11.98
2017-10-03T02:13:38.182Z,11.94
2017-10-03T02:16:05.629Z,11.94
2017-10-03T02:18:33.098Z,11.94
2017-10-03T02:21:00.551Z,11.94
2017-10-03T02:23:28.295Z,11.93
2017-10-03T02:25:55.748Z,11.96
2017-10-03T02:28:23.206Z,11.94
2017-10-03T02:30:50.675Z,11.94
2017-10-03T02:33:18.228Z,11.95
2017-10-03T02:35:45.708Z,11.91
2017-10-03T02:38:13.165Z,11.91
2017-10-03T02:40:40.892Z,11.89
2017-10-03T02:43:08.352Z,11.83
2017-10-03T02:45:35.870Z,11.87
2017-10-03T02:48:03.345Z,11.85
2017-10-03T02:50:30.794Z,11.88
2017-10-03T02:52:58.517Z,11.82
2017-10-03T02:55:25.982Z,11.83
2017-10-03T02:57:53.515Z,11.79
2017-10-03T03:00:20.999Z,11.79
2017-10-03T03:02:48.452Z,11.78
2017-10-03T03:05:15.918Z,11.76
2017-10-03T03:07:43.369Z,11.79
2017-10-03T03:10:10.877Z,11.75
2017-10-03T03:12:38.343Z,11.79
2017-10-03T03:15:06.119Z,11.77
2017-10-03T03:17:33.571Z,11.81
2017-10-03T03:20:01.033Z,11.85
2017-10-03T03:22:28.520Z,11.82
2017-10-03T03:24:55.984Z,11.80
2017-10-03T03:27:24.258Z,11.79
2017-10-03T03:29:51.716Z,11.79
2017-10-03T03:32:19.475Z,11.77
2017-10-03T03:34:46.956Z,11.77
2017-10-03T03:37:14.420Z,11.72
2017-10-03T03:39:41.881Z,11.71
2017-10-03T03:42:09.377Z,11.75
2017-10-03T03:44:36.844Z,11.73
2017-10-03T03:47:04.313Z,11.72
2017-10-03T03:49:31.794Z,11.69
2017-10-03T03:51:59.320Z,11.66
2017-10-03T03:54:27.119Z,11.67
2017-10-03T03:56:54.562Z,11.68
2017-10-03T03:59:22.018Z,11.62
2017-10-03T04:01:49.514Z,11.65
2017-10-03T04:04:16.957Z,11.67
2017-10-03T04:06:44.430Z,11.63
2017-10-03T04:09:11.915Z,11.64
2017-10-03T04:11:39.395Z,11.66
2017-10-03T04:14:06.878Z,11.66
2017-10-03T04:16:34.701Z,11.61
2017-10-03T04:19:02.149Z,11.64
2017-10-03T04:21:29.612Z,11.64
2017-10-03T04:23:57.075Z,11.65
2017-10-03T04:26:24.530Z,11.60
2017-10-03T04:28:52.004Z,11.63
2017-10-03T04:31:19.470Z,11.65
2017-10-03T04:33:46.932Z,11.60
2017-10-03T04:36:14.381Z,11.62
2017-10-03T04:38:42.118Z,11.59
2017-10-03T04:41:09.678Z,11.56
2017-10-03T04:43:37.237Z,11.54
2017-10-03T04:46:04.699Z,11.54
2017-10-03T04:48:32.151Z,11.53
2017-10-03T04:50:59.616Z,11.55
2017-10-03T04:53:27.069Z,11.62
2017-10-03T04:55:54.854Z,11.61
2017-10-03T04:58:22.342Z,11.53
2017-10-03T05:00:49.788Z,11.56
2017-10-03T05:03:17.299Z,11.59
2017-10-03T05:05:44.755Z,11.58
2017-10-03T05:08:12.232Z,11.53
2017-10-03T05:10:39.692Z,11.57
2017-10-03T05:13:07.166Z,11.60
2017-10-03T05:15:34.618Z,11.58
2017-10-03T05:18:02.449Z,11.59
2017-10-03T05:20:29.917Z,11.58
2017-10-03T05:22:57.492Z,11.62
2017-10-03T05:25:25.057Z,11.61
2017-10-03T05:27:52.512Z,11.62
2017-10-03T05:30:19.992Z,11.62
2017-10-03T05:32:47.450Z,11.62
2017-10-03T05:35:14.922Z,11.59
2017-10-03T05:37:42.392Z,11.69
2017-10-03T05:40:10.189Z,11.67
2017-10-03T05:42:37.650Z,11.68
2017-10-03T05:45:05.122Z,11.68
2017-10-03T05:47:32.603Z,11.73
2017-10-03T05:50:00.060Z,11.69
2017-10-03T05:52:27.534Z,11.70
2017-10-03T05:54:55.017Z,11.77
2017-10-03T05:57:22.474Z,11.70
2017-10-03T05:59:49.933Z,11.70
2017-10-03T06:02:17.405Z,11.71
2017-10-03T06:04:44.879Z,11.72
2017-10-03T06:07:12.349Z,11.70
2017-10-03T06:09:39.805Z,11.71
2017-10-03T06:12:07.286Z,11.72
2017-10-03T06:14:34.741Z,11.73
2017-10-03T06:17:02.459Z,11.80
2017-10-03T06:19:29.922Z,11.75
2017-10-03T06:21:57.401Z,11.74
2017-10-03T06:24:24.882Z,11.81
2017-10-03T06:26:52.352Z,11.82
2017-10-03T06:29:19.876Z,11.80
2017-10-03T06:31:47.361Z,11.87
2017-10-03T06:34:14.836Z,11.89
2017-10-03T06:36:42.403Z,11.90
2017-10-03T06:39:10.190Z,11.85
2017-10-03T06:41:37.638Z,11.87
2017-10-03T06:44:05.087Z,11.84
2017-10-03T06:46:32.548Z,11.79
2017-10-03T06:49:00.013Z,11.84
2017-10-03T06:51:27.625Z,11.87
2017-10-03T06:53:55.100Z,11.84
2017-10-03T06:56:22.581Z,11.83
2017-10-03T06:58:50.036Z,11.83
2017-10-03T07:01:17.807Z,11.86
2017-10-03T07:03:45.264Z,11.87
2017-10-03T07:06:12.728Z,11.85
2017-10-03T07:08:40.203Z,11.85
2017-10-03T07:11:07.681Z,11.89
2017-10-03T07:13:35.160Z,11.87
2017-10-03T07:16:02.627Z,11.89
2017-10-03T07:18:30.110Z,11.91
2017-10-03T07:20:57.590Z,11.97
2017-10-03T07:23:25.300Z,11.99
2017-10-03T07:25:52.750Z,11.99
2017-10-03T07:28:20.204Z,11.94
2017-10-03T07:30:47.773Z,12.07
2017-10-03T07:33:15.225Z,12.05
2017-10-03T07:35:42.690Z,12.04
2017-10-03T07:38:10.153Z,12.03
2017-10-03T07:40:37.951Z,12.07
2017-10-03T07:43:05.407Z,12.02
2017-10-03T07:45:32.952Z,12.05
2017-10-03T07:48:00.434Z,12.06
2017-10-03T07:50:27.965Z,12.05
2017-10-03T07:52:55.527Z,12.06
2017-10-03T07:55:22.994Z,12.02
2017-10-03T07:57:50.477Z,12.11
2017-10-03T08:00:17.927Z,12.12
2017-10-03T08:02:45.760Z,12.07
2017-10-03T08:05:13.649Z,12.13
2017-10-03T08:07:41.208Z,12.14
2017-10-03T08:10:08.693Z,12.16
2017-10-03T08:12:36.151Z,12.19
2017-10-03T08:15:03.624Z,12.16
2017-10-03T08:17:31.087Z,12.21
2017-10-03T08:19:58.566Z,12.25
2017-10-03T08:22:26.030Z,12.33
2017-10-03T08:24:53.850Z,12.49
2017-10-03T08:27:21.333Z,12.63
2017-10-03T08:29:48.825Z,12.73
2017-10-03T08:32:16.306Z,12.83
2017-10-03T08:34:43.779Z,12.94
2017-10-03T08:37:11.261Z,13.13
2017-10-03T08:39:38.747Z,13.16
2017-10-03T08:42:06.240Z,13.22
2017-10-03T08:44:33.697Z,13.32
2017-10-03T08:47:01.195Z,13.41
2017-10-03T08:49:28.680Z,13.43
2017-10-03T08:51:56.437Z,13.37
2017-10-03T08:54:23.899Z,13.33
2017-10-03T08:56:51.514Z,13.37
2017-10-03T08:59:19.051Z,13.44
2017-10-03T09:01:46.583Z,13.47
2017-10-03T09:04:14.067Z,13.55
2017-10-03T09:06:41.595Z,13.59
2017-10-03T09:09:09.160Z,13.63
2017-10-03T09:11:36.724Z,13.63
2017-10-03T09:14:04.505Z,13.64
2017-10-03T09:16:31.984Z,13.61
2017-10-03T09:18:59.433Z,13.55
2017-10-03T09:21:26.909Z,13.42
2017-10-03T09:23:54.398Z,13.31
2017-10-03T09:26:21.866Z,13.34
2017-10-03T09:28:49.353Z,13.41
2017-10-03T09:31:16.827Z,13.41
2017-10-03T09:33:44.304Z,13.41
2017-10-03T09:36:12.082Z,13.45
2017-10-03T09:38:39.587Z,13.53
2017-10-03T09:41:07.122Z,13.64
2017-10-03T09:43:34.606Z,13.79
2017-10-03T09:46:02.083Z,13.89
2017-10-03T09:48:29.563Z,13.92
2017-10-03T09:50:57.070Z,13.94
2017-10-03T09:53:24.808Z,13.99
2017-10-03T09:55:52.305Z,14.05
2017-10-03T09:58:19.806Z,14.11
2017-10-03T10:00:47.283Z,14.11
2017-10-03T10:03:14.766Z,14.17
2017-10-03T10:05:42.260Z,14.28
2017-10-03T10:08:09.766Z,14.52
2017-10-03T10:10:37.276Z,14.61
2017-10-03T10:13:04.809Z,14.83
2017-10-03T10:15:32.377Z,14.99
2017-10-03T10:23:45.439Z,14.78
2017-10-03T10:26:12.901Z,14.96
2017-10-03T10:28:40.643Z,15.28
2017-10-03T10:31:08.165Z,15.58
2017-10-03T10:33:35.680Z,16.05
2017-10-03T10:36:03.161Z,16.17
2017-10-03T10:38:30.634Z,16.36
2017-10-03T10:40:58.122Z,16.72
2017-10-03T10:43:25.697Z,16.94
2017-10-03T10:45:53.176Z,17.21
2017-10-03T10:48:20.872Z,16.77
2017-10-03T10:50:48.651Z,16.59
2017-10-03T10:53:16.102Z,16.28
2017-10-03T10:55:43.602Z,16.14
2017-10-03T10:58:11.159Z,15.88
2017-10-03T11:00:38.634Z,15.79
2017-10-03T11:03:06.134Z,15.66
2017-10-03T11:05:33.609Z,15.61
2017-10-03T11:08:01.094Z,15.81
2017-10-03T11:10:28.579Z,16.26
2017-10-03T11:12:56.382Z,16.62
2017-10-03T11:15:23.992Z,17.01
2017-10-03T11:17:51.611Z,17.26
2017-10-03T11:20:19.085Z,17.12
2017-10-03T11:22:58.544Z,16.62
2017-10-03T11:25:26.021Z,16.33
2017-10-03T11:27:53.532Z,16.17
2017-10-03T11:30:21.072Z,16.23
2017-10-03T11:32:48.642Z,16.53
2017-10-03T11:35:16.139Z,16.82
2017-10-03T11:37:43.605Z,17.13
2017-10-03T11:40:11.499Z,17.37
2017-10-03T11:42:38.962Z,17.46
2017-10-03T11:45:06.445Z,17.17
2017-10-03T11:47:33.943Z,16.97
2017-10-03T11:50:01.407Z,16.71
2017-10-03T11:52:28.893Z,16.61
2017-10-03T11:54:56.364Z,16.48
2017-10-03T11:57:23.847Z,16.53
2017-10-03T11:59:51.315Z,16.38
2017-10-03T12:02:18.805Z,16.29
2017-10-03T12:04:46.259Z,15.94
2017-10-03T12:07:13.998Z,15.67
2017-10-03T12:09:41.485Z,15.57
2017-10-03T12:12:08.959Z,15.65
2017-10-03T12:14:36.418Z,15.69
2017-10-03T12:17:03.913Z,15.64
2017-10-03T12:19:31.383Z,15.80
2017-10-03T12:21:58.846Z,16.06
2017-10-03T12:24:26.318Z,16.36
2017-10-03T12:26:53.773Z,16.46
2017-10-03T12:29:21.240Z,16.37
2017-10-03T12:31:48.704Z,16.31
2017-10-03T12:34:16.160Z,16.15
2017-10-03T12:36:43.651Z,15.82
2017-10-03T12:39:11.282Z,15.61
2017-10-03T12:41:38.757Z,15.33
2017-10-03T12:44:06.233Z,15.10
2017-10-03T12:46:33.783Z,14.95
2017-10-03T12:49:03.295Z,14.81
2017-10-03T12:51:31.055Z,14.67
2017-10-03T12:53:58.519Z,14.77
2017-10-03T12:56:25.993Z,15.13
2017-10-03T12:58:53.524Z,15.61
2017-10-03T13:01:21.002Z,16.18
2017-10-03T13:03:48.474Z,16.75
2017-10-03T13:06:15.945Z,17.17
2017-10-03T13:08:43.486Z,17.46
2017-10-03T13:11:11.755Z,17.69
2017-10-03T13:13:39.216Z,17.97
2017-10-03T13:16:06.692Z,18.25
2017-10-03T13:18:34.465Z,18.51
2017-10-03T13:21:02.127Z,18.48
2017-10-03T13:23:29.590Z,18.41
2017-10-03T13:25:57.104Z,18.47
2017-10-03T13:28:24.594Z,17.99
2017-10-03T13:30:52.118Z,17.73
2017-10-03T13:33:19.586Z,17.60
2017-10-03T13:35:47.142Z,17.39
2017-10-03T13:38:14.709Z,17.15
2017-10-03T13:40:42.570Z,17.09
2017-10-03T13:43:10.057Z,17.04
2017-10-03T13:45:38.233Z,16.86
2017-10-03T13:48:05.746Z,16.73
2017-10-03T13:50:33.235Z,16.72
2017-10-03T13:53:00.718Z,16.64
2017-10-03T13:55:28.186Z,16.52
2017-10-03T13:57:55.684Z,16.49
2017-10-03T14:00:23.171Z,16.65
2017-10-03T14:02:50.797Z,16.77
2017-10-03T14:05:18.266Z,16.81
2017-10-03T14:07:46.144Z,17.10
2017-10-03T14:10:13.686Z,17.58
2017-10-03T14:12:41.165Z,17.79
2017-10-03T14:15:08.664Z,17.74
2017-10-03T14:17:36.127Z,17.73
2017-10-03T14:20:03.619Z,17.70
2017-10-03T14:22:31.107Z,17.76
2017-10-03T14:24:58.581Z,17.48
2017-10-03T14:27:26.087Z,17.36
2017-10-03T14:29:53.576Z,17.13
2017-10-03T14:32:21.032Z,16.96
2017-10-03T14:34:48.552Z,16.76
2017-10-03T14:37:16.048Z,16.60
2017-10-03T14:39:43.581Z,16.51
2017-10-03T14:42:11.099Z,16.47
2017-10-03T14:44:38.563Z,16.43
2017-10-03T14:47:06.052Z,16.56
2017-10-03T14:49:33.571Z,16.41
2017-10-03T14:52:01.044Z,16.49
2017-10-03T14:54:28.519Z,16.45
2017-10-03T14:56:55.989Z,16.57
2017-10-03T14:59:23.483Z,16.66
2017-10-03T15:01:50.962Z,16.67
2017-10-03T15:04:18.437Z,16.79
2017-10-03T15:06:45.936Z,16.73
2017-10-03T15:09:13.483Z,16.70
2017-10-03T15:11:40.938Z,16.53
2017-10-03T15:14:08.677Z,16.49
2017-10-03T15:16:36.144Z,16.47
2017-10-03T15:19:03.947Z,16.39
2017-10-03T15:21:32.275Z,16.28
2017-10-03T15:23:59.751Z,16.28
2017-10-03T15:26:27.297Z,16.23
2017-10-03T15:28:54.776Z,16.20
2017-10-03T15:31:22.261Z,16.08
2017-10-03T15:33:49.733Z,15.94
2017-10-03T15:36:17.234Z,15.97
2017-10-03T15:38:44.707Z,15.92
2017-10-03T15:41:12.211Z,15.93
2017-10-03T15:43:39.704Z,15.85
2017-10-03T15:46:07.293Z,15.77
2017-10-03T15:48:34.824Z,15.70
2017-10-03T15:51:02.388Z,15.71
2017-10-03T15:53:29.857Z,15.78
2017-10-03T15:55:57.339Z,15.82
2017-10-03T15:58:24.896Z,15.86
2017-10-03T16:00:52.376Z,15.81
2017-10-03T16:03:19.863Z,15.87
2017-10-03T16:05:47.343Z,15.83
2017-10-03T16:08:14.808Z,15.79
2017-10-03T16:10:42.319Z,15.77
2017-10-03T16:13:09.797Z,15.68
2017-10-03T16:15:38.245Z,15.73
2017-10-03T16:18:05.712Z,15.69
2017-10-03T16:20:33.192Z,15.65
2017-10-03T16:23:00.691Z,15.54
2017-10-03T16:25:28.166Z,15.45
2017-10-03T16:27:55.618Z,15.38
2017-10-03T16:30:23.118Z,15.27
2017-10-03T16:32:50.583Z,15.19
2017-10-03T16:35:18.043Z,15.08
2017-10-03T16:37:45.525Z,15.02
2017-10-03T16:40:12.983Z,14.98
2017-10-03T16:42:40.489Z,14.91
2017-10-03T16:45:07.952Z,14.86
2017-10-03T16:47:35.424Z,14.77
2017-10-03T16:50:02.879Z,14.78
2017-10-03T16:52:30.421Z,14.66
2017-10-03T16:54:57.883Z,14.62
2017-10-03T16:57:25.678Z,14.47
2017-10-03T16:59:53.150Z,14.43
2017-10-03T17:02:20.646Z,14.42
2017-10-03T17:04:48.119Z,14.35
2017-10-03T17:07:15.580Z,14.28
2017-10-03T17:09:43.176Z,14.24
2017-10-03T17:12:10.743Z,14.25
2017-10-03T17:14:39.134Z,14.14
2017-10-03T17:17:06.611Z,14.09
2017-10-03T17:19:34.118Z,14.00
2017-10-03T17:22:01.689Z,13.96
2017-10-03T17:24:29.158Z,13.87
2017-10-03T17:26:56.710Z,13.83
2017-10-03T17:29:24.171Z,13.85
2017-10-03T17:31:51.907Z,13.80
2017-10-03T17:34:19.374Z,13.79
2017-10-03T17:36:46.865Z,13.76
2017-10-03T17:39:14.364Z,13.74
2017-10-03T17:41:41.835Z,13.76
2017-10-03T17:44:09.315Z,13.72
2017-10-03T17:46:36.797Z,13.64
2017-10-03T17:49:04.262Z,13.57
2017-10-03T17:51:31.732Z,13.57
2017-10-03T17:53:59.209Z,13.58
2017-10-03T17:56:26.693Z,13.55
2017-10-03T17:58:54.195Z,13.56
2017-10-03T18:01:21.728Z,13.59
2017-10-03T18:03:49.280Z,13.53
2017-10-03T18:06:16.748Z,13.50
2017-10-03T18:08:44.331Z,13.47
2017-10-03T18:11:11.817Z,13.39
2017-10-03T18:13:39.611Z,13.41
2017-10-03T18:16:07.101Z,13.44
2017-10-03T18:18:34.661Z,13.46
2017-10-03T18:21:02.132Z,13.39
2017-10-03T18:23:29.615Z,13.32
2017-10-03T18:25:57.194Z,13.25
2017-10-03T18:28:24.670Z,13.23
2017-10-03T18:30:52.231Z,13.19
2017-10-03T18:33:19.751Z,13.17
2017-10-03T18:35:47.212Z,13.21
2017-10-03T18:38:14.684Z,13.14
2017-10-03T18:40:42.147Z,13.17
2017-10-03T18:43:09.632Z,13.17
2017-10-03T18:45:37.093Z,13.20
2017-10-03T18:48:04.616Z,13.18
2017-10-03T18:50:32.954Z,13.13
2017-10-03T18:53:00.445Z,13.15
2017-10-03T18:55:27.914Z,13.07
2017-10-03T18:57:55.403Z,13.02
2017-10-03T19:00:22.856Z,12.94
2017-10-03T19:02:50.339Z,12.95
2017-10-03T19:05:17.825Z,12.96
2017-10-03T19:07:45.534Z,12.97
2017-10-03T19:10:12.997Z,12.99
2017-10-03T19:12:40.806Z,12.93
2017-10-03T19:15:08.278Z,12.87
2017-10-03T19:17:35.846Z,12.83
2017-10-03T19:20:03.429Z,12.80
2017-10-03T19:22:30.966Z,12.71
2017-10-03T19:24:58.534Z,12.69
2017-10-03T19:27:26.024Z,12.63
2017-10-03T19:29:53.551Z,12.65
2017-10-03T19:32:21.016Z,12.60
2017-10-03T19:34:49.033Z,12.54
2017-10-03T19:37:16.516Z,12.59
2017-10-03T19:39:44.079Z,12.57
2017-10-03T19:42:11.566Z,12.49
2017-10-03T19:44:39.074Z,12.38
2017-10-03T19:47:06.667Z,12.24
2017-10-03T19:49:34.143Z,12.29
2017-10-03T19:52:01.624Z,12.33
2017-10-03T19:54:29.082Z,12.27
2017-10-03T19:56:56.572Z,12.29
2017-10-03T19:59:24.038Z,12.22
2017-10-03T20:01:51.540Z,12.14
2017-10-03T20:04:19.066Z,12.25
2017-10-03T20:06:46.561Z,12.22
2017-10-03T20:09:14.040Z,12.21
2017-10-03T20:11:41.513Z,12.13
2017-10-03T20:14:08.976Z,12.15
2017-10-03T20:16:36.467Z,12.08
2017-10-03T20:19:03.960Z,12.07
2017-10-03T20:21:31.462Z,12.15
2017-10-03T20:23:58.933Z,12.14
2017-10-03T20:26:26.409Z,12.13
2017-10-03T20:28:53.910Z,12.09
2017-10-03T20:31:21.374Z,12.03
2017-10-03T20:33:49.872Z,12.03
2017-10-03T20:36:17.337Z,11.95
2017-10-03T20:38:44.828Z,12.00
2017-10-03T20:41:12.357Z,11.98
2017-10-03T20:43:39.827Z,11.93
2017-10-03T20:46:07.310Z,11.94
2017-10-03T20:48:34.786Z,11.87
2017-10-03T20:51:02.287Z,11.78
2017-10-03T20:53:29.767Z,11.78
2017-10-03T20:55:57.254Z,11.74
2017-10-03T20:58:24.759Z,11.73
2017-10-03T21:00:52.265Z,11.67
2017-10-03T21:03:19.733Z,11.63
2017-10-03T21:05:47.215Z,11.63
2017-10-03T21:08:14.690Z,11.65
2017-10-03T21:10:42.149Z,11.67
2017-10-03T21:13:09.647Z,11.64
2017-10-03T21:15:37.122Z,11.65
2017-10-03T21:18:04.611Z,11.62
2017-10-03T21:20:32.084Z,11.66
2017-10-03T21:22:59.865Z,11.71
2017-10-03T21:25:27.342Z,11.77
2017-10-03T21:27:54.816Z,11.65
2017-10-03T21:30:22.318Z,11.71
2017-10-03T21:32:50.070Z,11.66
2017-10-03T21:35:17.535Z,11.64
2017-10-03T21:37:45.012Z,11.65
2017-10-03T21:40:12.494Z,11.63
2017-10-03T21:42:52.009Z,11.62
2017-10-03T21:45:19.489Z,11.57
2017-10-03T21:47:46.961Z,11.54
2017-10-03T21:50:14.454Z,11.48
2017-10-03T21:52:41.935Z,11.44
2017-10-03T21:55:09.417Z,11.48
2017-10-03T21:57:36.885Z,11.46
2017-10-03T22:00:04.347Z,11.44
2017-10-03T22:02:31.846Z,11.49
2017-10-03T22:04:59.404Z,11.37
2017-10-03T22:07:29.547Z,11.47
2017-10-03T22:09:57.076Z,11.45
2017-10-03T22:12:24.568Z,11.45
2017-10-03T22:14:52.032Z,11.46
2017-10-03T22:17:19.507Z,11.45
2017-10-03T22:19:46.980Z,11.48
2017-10-03T22:22:14.487Z,11.46
2017-10-03T22:24:41.972Z,11.42
2017-10-03T22:27:09.530Z,11.45
2017-10-03T22:29:37.010Z,11.44
2017-10-03T22:32:04.471Z,11.48
2017-10-03T22:34:31.944Z,11.48
2017-10-03T22:36:59.422Z,11.53
2017-10-03T22:39:26.893Z,11.54
2017-10-03T22:41:54.578Z,11.48
2017-10-03T22:44:22.069Z,11.41
2017-10-03T22:46:49.550Z,11.45
2017-10-03T22:49:17.011Z,11.43
2017-10-03T22:51:50.078Z,11.43
2017-10-03T22:54:17.561Z,11.40
2017-10-03T22:56:45.100Z,11.38
2017-10-03T22:59:12.552Z,11.36
2017-10-03T23:01:40.036Z,11.23
2017-10-03T23:04:08.391Z,11.23
2017-10-03T23:06:35.875Z,11.30
2017-10-03T23:09:03.437Z,11.20
2017-10-03T23:11:30.993Z,11.30
2017-10-03T23:13:58.476Z,11.27
2017-10-03T23:16:25.998Z,11.31
2017-10-03T23:18:53.468Z,11.23
2017-10-03T23:21:20.963Z,11.32
2017-10-03T23:23:48.431Z,11.28
2017-10-03T23:26:15.887Z,11.24
2017-10-03T23:28:43.367Z,11.21
2017-10-03T23:31:10.843Z,11.15
2017-10-03T23:33:38.353Z,11.23
2017-10-03T23:36:05.814Z,11.15
2017-10-03T23:38:33.280Z,11.28
2017-10-03T23:41:00.787Z,11.17
2017-10-03T23:43:28.261Z,11.14
2017-10-03T23:45:55.749Z,11.07
2017-10-03T23:48:23.202Z,11.07
2017-10-03T23:50:50.679Z,11.13
2017-10-03T23:53:18.139Z,11.13
2017-10-03T23:55:45.608Z,11.09
2017-10-03T23:58:13.088Z,11.04
